createdAt,value
2018-03-14T00:05:57.329Z,11.1
2018-03-14T00:15:57.133Z,11.1
2018-03-14T00:25:56.007Z,11.2
2018-03-14T00:35:55.904Z,11.3
2018-03-14T00:45:54.219Z,11.3
2018-03-14T00:55:53.837Z,11.3
2018-03-14T01:05:52.707Z,11.3
2018-03-14T01:15:52.109Z,11.3
2018-03-14T01:25:51.072Z,11.3
2018-03-14T01:35:50.789Z,11.3
2018-03-14T01:46:05.792Z,11.3
2018-03-14T01:55:49.016Z,11.3
2018-03-14T02:05:48.134Z,11.3
2018-03-14T02:15:48.151Z,11.1
2018-03-14T02:26:01.078Z,11.1
2018-03-14T02:35:45.493Z,11.1
2018-03-14T02:45:44.993Z,11.1
2018-03-14T02:55:44.473Z,11.1
2018-03-14T03:05:43.276Z,11.1
2018-03-14T03:15:42.924Z,11.2
2018-03-14T03:25:41.712Z,11.2
2018-03-14T03:35:41.006Z,11.2
2018-03-14T03:45:40.148Z,11.1
2018-03-14T03:55:39.585Z,10.9
2018-03-14T04:05:38.801Z,11
2018-03-14T04:15:37.607Z,11.1
2018-03-14T04:25:37.223Z,11.3
2018-03-14T04:35:36.202Z,11.3
2018-03-14T04:45:35.500Z,11.3
2018-03-14T04:55:34.474Z,11.3
2018-03-14T05:05:33.988Z,11.3
2018-03-14T05:15:32.713Z,10.9
2018-03-14T05:25:47.370Z,10.4
2018-03-14T05:35:31.844Z,10.3
2018-03-14T05:45:30.888Z,10.3
2018-03-14T05:55:29.802Z,10.4
2018-03-14T06:05:29.132Z,10.6
2018-03-14T06:15:28.030Z,10.9
2018-03-14T06:25:27.319Z,10.9
2018-03-14T06:35:26.847Z,11.1
2018-03-14T06:45:26.009Z,11.4
2018-03-14T06:55:25.091Z,11.3
2018-03-14T07:05:24.929Z,11.1
2018-03-14T07:15:23.683Z,11
2018-03-14T07:25:22.595Z,10.9
2018-03-14T07:35:22.289Z,11.1
2018-03-14T07:45:20.911Z,11.6
2018-03-14T07:55:20.656Z,11.9
2018-03-14T08:05:19.246Z,12.8
2018-03-14T08:15:18.733Z,12.9
2018-03-14T08:25:18.063Z,12.6
2018-03-14T08:35:17.721Z,12.9
2018-03-14T08:45:16.120Z,12.7
2018-03-14T08:55:15.687Z,12.9
2018-03-14T09:05:29.776Z,12.6
2018-03-14T09:15:13.907Z,12.4
2018-03-14T09:25:13.466Z,12.5
2018-03-14T09:35:12.791Z,12.9
2018-03-14T09:45:11.445Z,13.2
2018-03-14T09:55:10.801Z,13.7
2018-03-14T10:05:10.472Z,14.1
2018-03-14T10:15:09.015Z,14.3
2018-03-14T10:25:08.308Z,15.1
2018-03-14T10:45:07.113Z,17.5
2018-03-14T10:55:05.993Z,16.9
2018-03-14T11:05:05.440Z,17.4
2018-03-14T11:15:04.231Z,17.2
2018-03-14T11:25:03.954Z,17.6
2018-03-14T11:35:02.735Z,16.4
2018-03-14T11:45:02.627Z,15.4
2018-03-14T11:55:01.361Z,15.6
2018-03-14T12:05:00.374Z,15.6
2018-03-14T12:15:00.286Z,15.4
2018-03-14T12:24:58.823Z,15.4
2018-03-14T12:34:57.921Z,15.1
2018-03-14T12:44:57.210Z,15.5
2018-03-14T12:54:56.590Z,15.3
2018-03-14T13:04:55.920Z,14.6
2018-03-14T13:14:54.832Z,13.8
2018-03-14T13:24:53.959Z,13.5
2018-03-14T13:34:53.281Z,13.1
2018-03-14T13:44:52.919Z,12.9
2018-03-14T13:54:52.277Z,12.8
2018-03-14T14:04:51.328Z,12.8
2018-03-14T14:14:50.272Z,12.8
2018-03-14T14:24:49.210Z,12.8
2018-03-14T14:34:49.210Z,12.9
2018-03-14T14:44:47.954Z,13.1
2018-03-14T14:54:47.018Z,13
2018-03-14T15:05:00.908Z,12.8
2018-03-14T15:14:45.773Z,12.7
2018-03-14T15:24:44.656Z,12.6
2018-03-14T15:34:44.382Z,12.6
2018-03-14T15:44:43.060Z,12.5
2018-03-14T15:54:42.319Z,12.4
2018-03-14T16:04:41.926Z,12.3
2018-03-14T16:14:40.525Z,12.1
2018-03-14T16:24:54.984Z,11.9
2018-03-14T16:34:39.507Z,11.8
2018-03-14T16:44:38.639Z,11.8
2018-03-14T16:54:37.890Z,11.7
2018-03-14T17:04:36.511Z,11.6
2018-03-14T17:14:36.329Z,11.5
2018-03-14T17:24:35.199Z,11.4
2018-03-14T17:34:34.663Z,11.4
2018-03-14T17:44:33.584Z,11.4
2018-03-14T17:54:32.809Z,12.1
2018-03-14T18:04:32.049Z,12.4
2018-03-14T18:14:31.081Z,12.6
2018-03-14T18:24:30.492Z,12.8
2018-03-14T18:34:29.922Z,12.9
2018-03-14T18:44:28.880Z,13.1
2018-03-14T18:54:28.149Z,13.1
2018-03-14T19:04:27.515Z,12.9
2018-03-14T19:14:26.244Z,12.8
2018-03-14T19:24:25.804Z,12.8
2018-03-14T19:34:25.077Z,12.7
2018-03-14T19:44:24.415Z,12.8
2018-03-14T19:54:24.054Z,12.8
2018-03-14T20:04:22.803Z,12.8
2018-03-14T20:14:21.514Z,12.9
2018-03-14T20:24:20.719Z,12.9
2018-03-14T20:34:20.317Z,12.9
2018-03-14T20:44:19.188Z,12.9
2018-03-14T20:54:18.567Z,12.9
2018-03-14T21:04:17.604Z,12.8
2018-03-14T21:14:17.498Z,12.8
2018-03-14T21:24:15.866Z,12.8
2018-03-14T21:34:15.159Z,12.7
2018-03-14T21:44:14.518Z,12.6
2018-03-14T21:54:13.716Z,12.4
2018-03-14T22:04:13.033Z,12.3
2018-03-14T22:14:12.088Z,12.3
2018-03-14T22:24:11.544Z,12.3
2018-03-14T22:34:11.090Z,12.3
2018-03-14T22:44:09.734Z,12.3
2018-03-14T22:54:09.050Z,12.1
2018-03-14T23:04:08.233Z,12
2018-03-14T23:14:07.288Z,11.9
2018-03-14T23:24:06.794Z,11.8
2018-03-14T23:34:06.077Z,11.8
2018-03-14T23:44:05.519Z,11.8
2018-03-14T23:54:04.256Z,11.6
